Map

Track Data

SID SEASON NUMBER BASIN SUBBASIN NAME ISO_TIME NATURE LAT LON WMO_WIND WMO_PRES WMO_AGENCY TRACK_TYPE DIST2LAND LANDFALL IFLAG USA_AGENCY USA_ATCF_ID USA_LAT USA_LON USA_RECORD USA_STATUS USA_WIND USA_PRES USA_SSHS USA_R34_NE USA_R34_SE USA_R34_SW USA_R34_NW USA_R50_NE USA_R50_SE USA_R50_SW USA_R50_NW USA_R64_NE USA_R64_SE USA_R64_SW USA_R64_NW USA_POCI USA_ROCI USA_RMW USA_EYE TOKYO_LAT TOKYO_LON TOKYO_GRADE TOKYO_WIND TOKYO_PRES TOKYO_R50_DIR TOKYO_R50_LONG TOKYO_R50_SHORT TOKYO_R30_DIR TOKYO_R30_LONG TOKYO_R30_SHORT TOKYO_LAND CMA_LAT CMA_LON CMA_CAT CMA_WIND CMA_PRES HKO_LAT HKO_LON HKO_CAT HKO_WIND HKO_PRES NEWDELHI_LAT NEWDELHI_LON NEWDELHI_GRADE NEWDELHI_WIND NEWDELHI_PRES NEWDELHI_CI NEWDELHI_DP NEWDELHI_POCI REUNION_LAT REUNION_LON REUNION_TYPE REUNION_WIND REUNION_PRES REUNION_TNUM REUNION_CI REUNION_RMW REUNION_R34_NE REUNION_R34_SE REUNION_R34_SW REUNION_R34_NW REUNION_R50_NE REUNION_R50_SE REUNION_R50_SW REUNION_R50_NW REUNION_R64_NE REUNION_R64_SE REUNION_R64_SW REUNION_R64_NW BOM_LAT BOM_LON BOM_TYPE BOM_WIND BOM_PRES BOM_TNUM BOM_CI BOM_RMW BOM_R34_NE BOM_R34_SE BOM_R34_SW BOM_R34_NW BOM_R50_NE BOM_R50_SE BOM_R50_SW BOM_R50_NW BOM_R64_NE BOM_R64_SE BOM_R64_SW BOM_R64_NW BOM_ROCI BOM_POCI BOM_EYE BOM_POS_METHOD BOM_PRES_METHOD NADI_LAT NADI_LON NADI_CAT NADI_WIND NADI_PRES WELLINGTON_LAT WELLINGTON_LON WELLINGTON_WIND WELLINGTON_PRES DS824_LAT DS824_LON DS824_STAGE DS824_WIND DS824_PRES TD9636_LAT TD9636_LON TD9636_STAGE TD9636_WIND TD9636_PRES TD9635_LAT TD9635_LON TD9635_WIND TD9635_PRES TD9635_ROCI NEUMANN_LAT NEUMANN_LON NEUMANN_CLASS NEUMANN_WIND NEUMANN_PRES MLC_LAT MLC_LON MLC_CLASS MLC_WIND MLC_PRES USA_GUST BOM_GUST BOM_GUST_PER REUNION_GUST REUNION_GUST_PER USA_SEAHGT USA_SEARAD_NE USA_SEARAD_SE USA_SEARAD_SW USA_SEARAD_NW STORM_SPEED STORM_DIR
1948240N14139 1948 55 WP MM GERTRUDE 1948-08-26 12:00:00 NR 14.3000 139.400 main 1521 1494 __________O___ -1 14.3000 139.400 2 8 315
1948240N14139 1948 55 WP MM GERTRUDE 1948-08-26 15:00:00 NR 14.5971 139.098 main 1495 1467 __________P___ -1 14.5971 139.098 2 8 315
1948240N14139 1948 55 WP MM GERTRUDE 1948-08-26 18:00:00 NR 14.8852 138.786 main 1469 1442 __________P___ -1 14.8852 138.786 2 8 312
1948240N14139 1948 55 WP MM GERTRUDE 1948-08-26 21:00:00 NR 15.1558 138.456 main 1444 1407 __________P___ -1 15.1558 138.456 2 8 308
1948240N14139 1948 55 WP MM GERTRUDE 1948-08-27 00:00:00 NR 15.4000 138.100 main 1407 1371 __________O___ -1 15.4000 138.100 2 9 302
1948240N14139 1948 55 WP MM GERTRUDE 1948-08-27 03:00:00 NR 15.6118 137.712 main 1371 1353 __________P___ -1 15.6118 137.712 2 7 300
1948240N14139 1948 55 WP MM GERTRUDE 1948-08-27 06:00:00 TS 15.7542 137.468 main 1356 1304 O________OPO__ jtwc_wp WP121948 15.7000 137.700 40 0 15.7000 137.700 TC 40 15.7948 137.295 2 15.7000 137.700 40 993 360 7 290
1948240N14139 1948 55 WP MM GERTRUDE 1948-08-27 09:00:00 TS 15.8548 137.008 main 1308 1257 P________PPP__ WP121948 15.7877 137.110 42 0 15.7877 137.110 TC 42 15.9554 136.855 2 15.7877 137.110 42 990 360 10 282
1948240N14139 1948 55 WP MM GERTRUDE 1948-08-27 12:00:00 TS 15.9615 136.469 main 1260 1203 O________OOO__ jtwc_wp WP121948 15.9000 136.500 45 0 15.9000 136.500 TC 45 16.1000 136.400 2 45 15.9000 136.500 45 988 360 11 283
1948240N14139 1948 55 WP MM GERTRUDE 1948-08-27 15:00:00 TS 16.0953 135.890 main 1203 1157 P________PPP__ WP121948 16.0501 135.870 47 0 16.0501 135.870 TC 47 16.2309 135.951 2 48 16.0501 135.870 47 985 360 11 284
1948240N14139 1948 55 WP MM GERTRUDE 1948-08-27 18:00:00 TS 16.2374 135.347 main 1147 1112 O________OPO__ jtwc_wp WP121948 16.2000 135.300 50 0 16.2000 135.300 TC 50 16.3494 135.487 2 52 16.2000 135.300 50 982 360 10 285
1948240N14139 1948 55 WP MM GERTRUDE 1948-08-27 21:00:00 TS 16.3418 134.920 main 1112 1077 P________PPP__ WP121948 16.2996 134.892 55 0 16.2996 134.892 TC 55 16.4683 135.004 2 56 16.2996 134.892 55 980 360 8 285
1948240N14139 1948 55 WP MM GERTRUDE 1948-08-28 00:00:00 TS 16.4500 134.500 main 1082 1039 O________OOO__ jtwc_wp WP121948 16.4000 134.500 60 0 16.4000 134.500 TC 60 16.6000 134.500 2 60 16.4000 134.500 60 978 360 10 286
1948240N14139 1948 55 WP MM GERTRUDE 1948-08-28 03:00:00 TS 16.6067 133.967 main 1039 994 P________PPP__ WP121948 16.5501 133.965 67 1 16.5501 133.965 TC 67 16.7767 133.972 2 66 16.5501 133.965 67 977 360 11 287
1948240N14139 1948 55 WP MM GERTRUDE 1948-08-28 06:00:00 TS 16.7662 133.406 main 994 954 O________OPO__ jtwc_wp WP121948 16.7000 133.400 75 1 16.7000 133.400 TC 75 16.9648 133.423 2 72 16.7000 133.400 75 976 360 11 285
1948240N14139 1948 55 WP MM GERTRUDE 1948-08-28 09:00:00 TS 16.8863 132.879 main 954 916 P________PPP__ WP121948 16.7999 132.885 80 1 16.7999 132.885 TC 80 17.1454 132.863 2 78 16.7999 132.885 80 976 360 10 283
1948240N14139 1948 55 WP MM GERTRUDE 1948-08-28 12:00:00 TS 17.0000 132.375 main 916 879 O________OOO__ jtwc_wp WP121948 16.9000 132.400 85 2 16.9000 132.400 TC 85 17.3000 132.300 3 85 16.9000 132.400 85 976 360 10 286
1948240N14139 1948 55 WP MM GERTRUDE 1948-08-28 15:00:00 TS 17.1467 131.916 main 879 850 P________PPP__ WP121948 17.0571 131.973 80 1 17.0571 131.973 TC 80 17.4156 131.746 3 80 17.0571 131.973 80 976 360 10 287
1948240N14139 1948 55 WP MM GERTRUDE 1948-08-28 18:00:00 TS 17.2755 131.423 main 840 784 O________OPO__ jtwc_wp WP121948 17.2000 131.500 75 1 17.2000 131.500 TC 75 17.5020 131.192 3 75 17.2000 131.500 75 977 360 11 281
1948240N14139 1948 55 WP MM GERTRUDE 1948-08-28 21:00:00 TS 17.3452 130.804 main 784 734 P________PPP__ WP121948 17.2728 130.857 70 1 17.2728 130.857 TC 70 17.5624 130.643 3 70 17.2728 130.857 70 978 390 12 275
1948240N14139 1948 55 WP MM GERTRUDE 1948-08-29 00:00:00 TS 17.3750 130.175 main 734 689 O________OOO__ jtwc_wp WP121948 17.3000 130.200 65 1 17.3000 130.200 TC 65 17.6000 130.100 4 65 17.3000 130.200 65 979 420 11 273
1948240N14139 1948 55 WP MM GERTRUDE 1948-08-29 03:00:00 TS 17.4066 129.655 main 689 646 P________PPP__ WP121948 17.3296 129.685 65 1 17.3296 129.685 TC 65 17.6374 129.564 4 63 17.3296 129.685 65 980 390 10 271
1948240N14139 1948 55 WP MM GERTRUDE 1948-08-29 06:00:00 TS 17.3880 129.159 main 646 589 O________OPO__ jtwc_wp WP121948 17.3000 129.200 65 1 17.3000 129.200 TC 65 17.6519 129.035 4 62 17.3000 129.200 65 982 360 10 264
1948240N14139 1948 55 WP MM GERTRUDE 1948-08-29 09:00:00 TS 17.2951 128.616 main 589 541 P________PPP__ WP121948 17.1800 128.650 62 0 17.1800 128.650 TC 62 17.6405 128.514 4 61 17.1800 128.650 62 984 330 11 257
1948240N14139 1948 55 WP MM GERTRUDE 1948-08-29 12:00:00 TS 17.1500 128.075 main 541 487 O________OOO__ jtwc_wp WP121948 17.0000 128.100 60 0 17.0000 128.100 TC 60 17.6000 128.000 2 60 17.0000 128.100 60 986 300 11 253
1948240N14139 1948 55 WP MM GERTRUDE 1948-08-29 15:00:00 TS 16.9886 127.565 main 487 434 P________PPP__ WP121948 16.8073 127.593 60 0 16.8073 127.593 TC 60 17.5325 127.480 2 61 16.8073 127.593 60 987 300 10 251
1948240N14139 1948 55 WP MM GERTRUDE 1948-08-29 18:00:00 TS 16.8093 127.067 main 434 381 O________OPO__ jtwc_wp WP121948 16.6000 127.100 60 0 16.6000 127.100 TC 60 17.4372 126.970 2 62 16.6000 127.100 60 989 300 10 250
1948240N14139 1948 55 WP MM GERTRUDE 1948-08-29 21:00:00 TS 16.6253 126.540 main 374 340 P________PPP__ WP121948 16.3926 126.562 62 0 16.3926 126.562 TC 62 17.3232 126.474 2 63 16.3926 126.562 62 990 270 10 249
1948240N14139 1948 55 WP MM GERTRUDE 1948-08-30 00:00:00 TS 16.4500 126.075 main 340 303 O________OOO__ jtwc_wp WP121948 16.2000 126.100 65 1 16.2000 126.100 TC 65 17.2000 126.000 3 65 16.2000 126.100 65 991 240 8 246
1948240N14139 1948 55 WP MM GERTRUDE 1948-08-30 03:00:00 TS 16.3011 125.765 main 303 277 P________PPP__ WP121948 16.0422 125.835 65 1 16.0422 125.835 TC 65 17.0776 125.554 3 66 16.0422 125.835 65 991 270 6 243
1948240N14139 1948 55 WP MM GERTRUDE 1948-08-30 06:00:00 TS 16.1623 125.482 main 277 239 O________OPO__ jtwc_wp WP121948 15.9000 125.600 65 1 15.9000 125.600 TC 65 16.9494 125.128 3 67 15.9000 125.600 65 992 300 7 246
1948240N14139 1948 55 WP MM GERTRUDE 1948-08-30 09:00:00 TS 16.0067 125.089 main 239 216 P________PPP__ WP121948 15.7351 125.215 67 1 15.7351 125.215 TC 67 16.8214 124.713 3 68 15.7351 125.215 67 992 300 8 250
1948240N14139 1948 55 WP MM GERTRUDE 1948-08-30 12:00:00 TS 15.8750 124.675 main 216 201 O________OOO__ jtwc_wp WP121948 15.6000 124.800 70 1 15.6000 124.800 TC 70 16.7000 124.300 4 70 15.6000 124.800 70 993 300 8 254
1948240N14139 1948 55 WP MM GERTRUDE 1948-08-30 15:00:00 TS 15.7897 124.298 main 201 190 P________PPP__ WP121948 15.5274 124.450 70 1 15.5274 124.450 TC 70 16.5767 123.842 4 70 15.5274 124.450 70 993 300 7 260
1948240N14139 1948 55 WP MM GERTRUDE 1948-08-30 18:00:00 TS 15.7407 123.922 main 190 149 O________OPO__ jtwc_wp WP121948 15.5000 124.100 70 1 15.5000 124.100 TC 70 16.4628 123.390 4 70 15.5000 124.100 70 994 300 8 264
1948240N14139 1948 55 WP MM GERTRUDE 1948-08-30 21:00:00 TS 15.7056 123.517 main 149 111 P________PPP__ WP121948 15.4850 123.700 70 1 15.4850 123.700 TC 70 16.3674 122.967 4 70 15.4850 123.700 70 994 300 8 267
1948240N14139 1948 55 WP MM GERTRUDE 1948-08-31 00:00:00 TS 15.7000 123.125 main 111 85 O________OOO__ jtwc_wp WP121948 15.5000 123.300 70 1 15.5000 123.300 TC 70 16.3000 122.600 4 70 15.5000 123.300 70 995 300 7 271
1948240N14139 1948 55 WP MM GERTRUDE 1948-08-31 03:00:00 TS 15.7235 122.778 main 85 54 P________PPP__ WP121948 15.5424 122.935 70 1 15.5424 122.935 TC 70 16.2668 122.306 4 67 15.5424 122.935 70 995 300 6 276
1948240N14139 1948 55 WP MM GERTRUDE 1948-08-31 06:00:00 TS 15.7655 122.467 main 54 30 O________OPO__ jtwc_wp WP121948 15.6000 122.600 70 1 15.6000 122.600 TC 70 16.2620 122.068 4 65 15.6000 122.600 70 995 300 6 278
1948240N14139 1948 55 WP MM GERTRUDE 1948-08-31 09:00:00 TS 15.8009 122.193 main 30 22 P________PPP__ WP121948 15.6424 122.300 65 1 15.6424 122.300 TC 65 16.2763 121.871 4 62 15.6424 122.300 65 995 300 5 279
1948240N14139 1948 55 WP MM GERTRUDE 1948-08-31 12:00:00 TS 15.8500 121.925 main 15 0 O________OOO__ jtwc_wp WP121948 15.7000 122.000 60 0 15.7000 122.000 TC 60 16.3000 121.700 2 60 15.7000 122.000 60 995 300 6 281
1948240N14139 1948 55 WP MM GERTRUDE 1948-08-31 15:00:00 TS 15.9090 121.621 main 0 0 P________PPP__ WP121948 15.7850 121.643 60 0 15.7850 121.643 TC 60 16.2809 121.557 2 57 15.7850 121.643 60 994 300 6 284
1948240N14139 1948 55 WP MM GERTRUDE 1948-08-31 18:00:00 TS 15.9936 121.332 main 0 0 O________OPO__ jtwc_wp WP121948 15.9000 121.300 60 0 15.9000 121.300 TC 60 16.2745 121.429 2 55 15.9000 121.300 60 994 300 5 292
1948240N14139 1948 55 WP MM GERTRUDE 1948-08-31 21:00:00 TS 16.1082 121.115 main 0 0 P________PPP__ WP121948 16.0423 121.057 55 0 16.0423 121.057 TC 55 16.3059 121.288 2 52 16.0423 121.057 55 993 270 5 300
1948240N14139 1948 55 WP MM GERTRUDE 1948-09-01 00:00:00 TS 16.2500 120.875 main 0 0 O________OOO__ jtwc_wp WP121948 16.2000 120.800 50 0 16.2000 120.800 TC 50 16.4000 121.100 2 50 16.2000 120.800 50 993 240 6 297
1948240N14139 1948 55 WP MM GERTRUDE 1948-09-01 03:00:00 TS 16.3976 120.523 main 0 0 P________PPP__ WP121948 16.3350 120.422 47 0 16.3350 120.422 TC 47 16.5855 120.826 2 48 16.3350 120.422 47 993 240 8 295
1948240N14139 1948 55 WP MM GERTRUDE 1948-09-01 06:00:00 TS 16.5832 120.126 main 21 21 O________OPO__ jtwc_wp WP121948 16.5000 120.000 45 0 16.5000 120.000 TC 45 16.8327 120.503 2 47 16.5000 120.000 45 993 240 9 300
1948240N14139 1948 55 WP MM GERTRUDE 1948-09-01 09:00:00 TS 16.8352 119.738 main 56 56 P________PPP__ WP121948 16.7424 119.600 45 0 16.7424 119.600 TC 45 17.1136 120.154 2 46 16.7424 119.600 45 992 300 9 305
1948240N14139 1948 55 WP MM GERTRUDE 1948-09-01 12:00:00 TS 17.1000 119.350 main 99 99 O________OOO__ jtwc_wp WP121948 17.0000 119.200 45 0 17.0000 119.200 TC 45 17.4000 119.800 2 45 17.0000 119.200 45 992 360 9 303
1948240N14139 1948 55 WP MM GERTRUDE 1948-09-01 15:00:00 TS 17.3056 118.975 main 140 140 P________PPP__ WP121948 17.1925 118.792 47 0 17.1925 118.792 TC 47 17.6451 119.523 2 48 17.1925 118.792 47 991 330 8 301
1948240N14139 1948 55 WP MM GERTRUDE 1948-09-01 18:00:00 TS 17.5228 118.610 main 180 180 O________OPO__ jtwc_wp WP121948 17.4000 118.400 50 0 17.4000 118.400 TC 50 17.8911 119.239 2 52 17.4000 118.400 50 991 300 8 306
1948240N14139 1948 55 WP MM GERTRUDE 1948-09-01 21:00:00 TS 17.7821 118.282 main 213 213 P________PPP__ WP121948 17.6622 118.072 55 0 17.6622 118.072 TC 55 18.1416 118.910 2 56 17.6622 118.072 55 991 300 9 310
1948240N14139 1948 55 WP MM GERTRUDE 1948-09-02 00:00:00 TS 18.1000 117.900 main 260 260 O________OOO__ jtwc_wp WP121948 18.0000 117.700 60 0 18.0000 117.700 TC 60 18.4000 118.500 2 60 18.0000 117.700 60 991 300 11 310
1948240N14139 1948 55 WP MM GERTRUDE 1948-09-02 03:00:00 TS 18.4963 117.384 main 322 322 P________PPP__ WP121948 18.4350 117.188 60 0 18.4350 117.188 TC 60 18.6802 117.974 2 60 18.4350 117.188 60 991 330 13 308
1948240N14139 1948 55 WP MM GERTRUDE 1948-09-02 06:00:00 TS 18.9163 116.791 main 397 382 O________OPO__ jtwc_wp WP121948 18.9000 116.600 60 0 18.9000 116.600 TC 60 18.9652 117.363 2 60 18.9000 116.600 60 991 360 14 305
1948240N14139 1948 55 WP MM GERTRUDE 1948-09-02 09:00:00 TS 19.2856 116.174 main 382 330 P________PPP__ WP121948 19.2999 116.000 60 0 19.2999 116.000 TC 60 19.2425 116.695 2 60 19.2999 116.000 60 991 300 14 302
1948240N14139 1948 55 WP MM GERTRUDE 1948-09-02 12:00:00 TS 19.6500 115.550 main 320 267 O________OOO__ jtwc_wp WP121948 19.7000 115.400 60 0 19.7000 115.400 TC 60 19.5000 116.000 2 60 19.7000 115.400 60 991 240 14 304
1948240N14139 1948 55 WP MM GERTRUDE 1948-09-02 15:00:00 TS 20.0535 114.951 main 256 212 P________PPP__ WP121948 20.1573 114.835 60 0 20.1573 114.835 TC 60 19.7421 115.297 2 60 20.1573 114.835 60 991 240 14 305
1948240N14139 1948 55 WP MM GERTRUDE 1948-09-02 18:00:00 TS 20.4401 114.369 main 212 157 O________OPO__ jtwc_wp WP121948 20.6000 114.300 60 0 20.6000 114.300 TC 60 19.9604 114.578 2 60 20.6000 114.300 60 992 240 13 303
1948240N14139 1948 55 WP MM GERTRUDE 1948-09-02 21:00:00 TS 20.7494 113.811 main 157 105 P________PPP__ WP121948 20.9498 113.792 60 0 20.9498 113.792 TC 60 20.1484 113.869 2 60 20.9498 113.792 60 993 240 12 300
1948240N14139 1948 55 WP MM GERTRUDE 1948-09-03 00:00:00 TS 21.0333 113.273 main 105 54 O________OOO__ jtwc_wp WP121948 21.3000 113.300 60 0 21.3000 113.300 TC 60 20.3000 113.200 2 60 21.3000 113.300 60 994 240 11 307
1948240N14139 1948 55 WP MM GERTRUDE 1948-09-03 03:00:00 TS 21.4183 112.844 main 49 0 P________PPP__ WP121948 21.8520 112.974 55 0 21.8520 112.974 TC 55 20.3975 112.606 2 21.7253 112.803 55 995 210 12 303
1948240N14139 1948 55 WP MM GERTRUDE 1948-09-03 06:00:00 TS 21.6656 112.224 main 0 0 O________OPO__ jtwc_wp WP121948 22.2000 112.300 50 0 22.2000 112.300 TC 50 20.4634 112.053 2 22.2000 112.300 50 997 180 17 270
1948240N14139 1948 55 WP MM GERTRUDE 1948-09-03 09:00:00 TS 21.4308 110.988 main 11 0 P________PP___ WP121948 21.8848 110.719 45 0 21.8848 110.719 TC 45 20.5226 111.524 2 24 259
1948240N14139 1948 55 WP MM GERTRUDE 1948-09-03 12:00:00 TS 21.2000 109.667 main 10 10 O________OO___ jtwc_wp WP121948 21.5000 109.000 40 0 21.5000 109.000 TC 40 20.6000 111.000 7 21 268
1948240N14139 1948 55 WP MM GERTRUDE 1948-09-03 15:00:00 TS 21.3686 108.709 main 22 0 P________PP___ WP121948 21.6958 107.831 35 0 21.6958 107.831 TC 35 20.7140 110.464 7 16 285
1948240N14139 1948 55 WP MM GERTRUDE 1948-09-03 18:00:00 TS 21.6198 107.972 main 0 0 O________OP___ jtwc_wp WP121948 22.0000 107.000 30 -1 22.0000 107.000 TC 30 20.8594 109.917 7 13 287
1948240N14139 1948 55 WP MM GERTRUDE 1948-09-03 21:00:00 TS 21.7287 107.408 main 0 0 P________PP___ WP121948 22.0805 106.431 25 -1 22.0805 106.431 TC 25 21.0251 109.361 7 10 277
1948240N14139 1948 55 WP MM GERTRUDE 1948-09-04 00:00:00 TS 21.7333 106.933 main 0 O________OO___ jtwc_wp WP121948 22.0000 106.000 20 -1 22.0000 106.000 TC 20 21.2000 108.800 7 9 271

Digital Typhoon Data and Search

About IBTrACS Database

This database is a web-friendly format of International Best Track Archive for Climate Stewardship (IBTrACS), a global best track data archive curated by NOAA dating back to 1842.

Updated: 2021-11-26